createdAt,value
2022-11-01T00:02:36.738Z,4.05
2022-11-01T00:08:40.126Z,4.22
2022-11-01T00:14:43.615Z,3.67
2022-11-01T00:20:48.569Z,3.65
2022-11-01T00:26:51.988Z,3.20
2022-11-01T00:39:15.126Z,3.25
2022-11-01T00:45:18.994Z,2.97
2022-11-01T00:51:22.451Z,2.53
2022-11-01T00:57:27.284Z,2.50
2022-11-01T01:03:30.671Z,1.98
2022-11-01T01:09:34.270Z,1.95
2022-11-01T01:15:39.519Z,1.63
2022-11-01T01:21:42.952Z,1.40
2022-11-01T01:27:46.341Z,1.25
2022-11-01T01:33:52.120Z,1.30
2022-11-01T01:39:55.621Z,1.15
2022-11-01T01:45:59.188Z,0.80
2022-11-01T01:52:04.178Z,1.00
2022-11-01T01:58:08.729Z,0.80
2022-11-01T02:04:24.624Z,1.00
2022-11-01T02:10:30.030Z,0.98
2022-11-01T02:16:39.794Z,1.58
2022-11-01T02:22:54.500Z,0.98
2022-11-01T02:29:09.918Z,0.65
2022-11-01T02:35:19.417Z,0.80
2022-11-01T02:41:25.655Z,1.10
2022-11-01T02:47:30.370Z,0.90
2022-11-01T02:53:35.255Z,0.60
2022-11-01T02:59:45.676Z,0.90
2022-11-01T03:05:56.435Z,0.75
2022-11-01T03:12:03.777Z,0.73
2022-11-01T03:18:10.871Z,0.80
2022-11-01T03:24:18.381Z,0.70
2022-11-01T03:30:26.395Z,0.77
2022-11-01T03:36:31.556Z,0.70
2022-11-01T03:42:35.737Z,1.25
2022-11-01T03:48:42.104Z,1.10
2022-11-01T03:54:45.589Z,0.90
2022-11-01T04:00:49.324Z,0.88
2022-11-01T04:06:54.347Z,1.27
2022-11-01T04:12:58.371Z,1.05
2022-11-01T04:19:19.681Z,1.05
2022-11-01T04:25:24.741Z,1.27
2022-11-01T04:31:28.997Z,1.00
2022-11-01T04:37:32.436Z,1.00
2022-11-01T04:43:37.320Z,0.82
2022-11-01T04:49:40.683Z,0.98
2022-11-01T04:55:44.214Z,1.10
2022-11-01T05:01:49.274Z,1.17
2022-11-01T05:07:52.853Z,1.20
2022-11-01T05:13:56.318Z,1.05
2022-11-01T05:20:01.170Z,1.27
2022-11-01T05:26:04.639Z,1.58
2022-11-01T05:32:10.273Z,1.23
2022-11-01T05:38:15.108Z,1.50
2022-11-01T05:44:18.732Z,1.30
2022-11-01T05:50:22.868Z,1.45
2022-11-01T05:56:27.641Z,0.82
2022-11-01T06:02:33.225Z,1.38
2022-11-01T06:08:36.696Z,1.27
2022-11-01T06:14:41.552Z,1.30
2022-11-01T06:20:44.944Z,1.00
2022-11-01T06:26:48.386Z,1.20
2022-11-01T06:32:53.154Z,1.75
2022-11-01T06:38:56.597Z,1.10
2022-11-01T06:45:00.001Z,0.98
2022-11-01T06:51:05.858Z,1.33
2022-11-01T06:57:09.518Z,1.33
2022-11-01T07:03:14.100Z,1.40
2022-11-01T07:09:18.899Z,1.30
2022-11-01T07:15:22.258Z,1.15
2022-11-01T07:21:26.076Z,1.35
2022-11-01T07:27:30.820Z,1.30
2022-11-01T07:33:34.555Z,1.50
2022-11-01T07:39:38.382Z,1.45
2022-11-01T07:45:43.397Z,1.50
2022-11-01T07:51:46.765Z,1.30
2022-11-01T07:57:50.126Z,1.70
2022-11-01T08:03:54.879Z,0.98
2022-11-01T08:09:58.247Z,1.23
2022-11-01T08:16:03.520Z,1.48
2022-11-01T08:22:11.767Z,1.15
2022-11-01T08:28:16.230Z,1.38
2022-11-01T08:34:19.764Z,1.48
2022-11-01T08:40:24.705Z,1.05
2022-11-01T08:46:28.050Z,1.35
2022-11-01T08:52:31.448Z,1.83
2022-11-01T08:58:36.369Z,1.08
2022-11-01T09:04:39.824Z,0.95
2022-11-01T09:10:43.380Z,0.88
2022-11-01T09:16:48.414Z,1.27
2022-11-01T09:22:53.541Z,1.10
2022-11-01T09:28:58.703Z,1.60
2022-11-01T09:35:06.133Z,0.73
2022-11-01T09:41:14.110Z,1.25
2022-11-01T09:47:20.075Z,1.20
2022-11-01T09:53:27.000Z,1.17
2022-11-01T09:59:33.582Z,1.10
2022-11-01T10:05:44.684Z,1.40
2022-11-01T10:12:05.987Z,1.38
2022-11-01T10:18:17.285Z,1.02
2022-11-01T10:24:24.910Z,1.27
2022-11-01T10:30:31.692Z,0.93
2022-11-01T10:42:44.895Z,1.67
2022-11-01T10:48:51.220Z,1.48
2022-11-01T10:54:57.858Z,1.63
2022-11-01T11:01:02.682Z,1.15
2022-11-01T11:07:13.633Z,1.02
2022-11-01T11:13:18.886Z,1.40
2022-11-01T11:19:27.380Z,1.40
2022-11-01T11:25:35.122Z,0.82
2022-11-01T11:31:38.598Z,0.73
2022-11-01T11:37:42.954Z,1.58
2022-11-01T11:43:47.694Z,0.57
2022-11-01T11:49:53.734Z,0.90
2022-11-01T11:55:58.218Z,1.20
2022-11-01T12:02:04.830Z,1.23
2022-11-01T12:08:18.876Z,1.42
2022-11-01T12:14:26.668Z,1.02
2022-11-01T12:20:37.806Z,1.77
2022-11-01T12:26:42.032Z,1.52
2022-11-01T12:32:49.411Z,1.13
2022-11-01T12:38:55.423Z,0.80
2022-11-01T12:45:05.044Z,1.70
2022-11-01T12:51:10.069Z,1.00
2022-11-01T12:57:18.227Z,1.17
2022-11-01T13:03:29.043Z,1.00
2022-11-01T13:09:37.048Z,0.82
2022-11-01T13:15:46.616Z,1.17
2022-11-01T13:21:52.173Z,0.95
2022-11-01T13:28:04.422Z,1.17
2022-11-01T13:34:19.713Z,0.85
2022-11-01T13:40:28.058Z,1.30
2022-11-01T13:46:36.091Z,0.70
2022-11-01T13:52:44.473Z,1.20
2022-11-01T13:58:47.855Z,1.05
2022-11-01T14:04:57.711Z,1.95
2022-11-01T14:11:02.627Z,1.20
2022-11-01T14:17:22.147Z,1.08
2022-11-01T14:23:52.755Z,1.50
2022-11-01T14:29:58.187Z,0.85
2022-11-01T14:36:01.649Z,1.02
2022-11-01T14:42:13.654Z,1.25
2022-11-01T14:48:20.660Z,0.90
2022-11-01T14:54:27.343Z,1.27
2022-11-01T15:00:32.596Z,1.38
2022-11-01T15:06:37.641Z,1.65
2022-11-01T15:12:47.849Z,1.52
2022-11-01T15:18:53.141Z,1.73
2022-11-01T15:24:59.200Z,1.52
2022-11-01T15:31:06.403Z,1.38
2022-11-01T15:37:13.532Z,1.35
2022-11-01T15:43:20.435Z,1.65
2022-11-01T15:49:26.221Z,1.58
2022-11-01T15:55:31.701Z,1.42
2022-11-01T16:01:36.619Z,1.95
2022-11-01T16:07:40.380Z,1.40
2022-11-01T16:13:48.718Z,1.65
2022-11-01T16:19:54.421Z,1.52
2022-11-01T16:26:05.771Z,1.17
2022-11-01T16:32:10.364Z,1.10
2022-11-01T16:38:25.230Z,1.40
2022-11-01T16:44:29.358Z,2.38
2022-11-01T16:50:32.733Z,1.00
2022-11-01T16:56:39.550Z,1.67
2022-11-01T17:02:44.167Z,1.33
2022-11-01T17:08:47.568Z,0.98
2022-11-01T17:14:53.624Z,1.20
2022-11-01T17:20:57.965Z,0.90
2022-11-01T17:27:04.570Z,1.02
2022-11-01T17:33:09.263Z,1.05
2022-11-01T17:39:13.114Z,1.00
2022-11-01T17:45:16.877Z,1.08
2022-11-01T17:51:23.102Z,1.30
2022-11-01T17:57:26.507Z,1.98
2022-11-01T18:03:29.941Z,1.95
2022-11-01T18:09:36.023Z,1.48
2022-11-01T18:15:41.709Z,1.63
2022-11-01T18:21:51.141Z,1.83
2022-11-01T18:27:58.524Z,1.55
2022-11-01T18:34:04.621Z,1.63
2022-11-01T18:40:13.787Z,1.98
2022-11-01T18:46:25.063Z,1.77
2022-11-01T18:52:30.051Z,1.10
2022-11-01T18:58:35.868Z,1.42
2022-11-01T19:04:42.602Z,1.42
2022-11-01T19:10:46.364Z,0.90
2022-11-01T19:16:50.506Z,1.38
2022-11-01T19:22:56.644Z,1.00
2022-11-01T19:29:00.123Z,1.55
2022-11-01T19:35:03.886Z,1.45
2022-11-01T19:41:10.378Z,1.70
2022-11-01T19:47:28.129Z,1.33
2022-11-01T19:53:32.520Z,1.45
2022-11-01T19:59:37.552Z,1.42
2022-11-01T20:05:41.055Z,1.25
2022-11-01T20:11:44.484Z,1.40
2022-11-01T20:17:49.443Z,1.00
2022-11-01T20:23:52.919Z,0.90
2022-11-01T20:29:56.307Z,1.02
2022-11-01T20:36:01.067Z,1.17
2022-11-01T20:42:08.587Z,1.10
2022-11-01T20:48:12.007Z,1.17
2022-11-01T20:54:18.177Z,1.33
2022-11-01T21:00:21.960Z,1.10
2022-11-01T21:06:27.292Z,2.20
2022-11-01T21:12:41.387Z,1.25
2022-11-01T21:18:46.454Z,1.63
2022-11-01T21:24:51.297Z,1.55
2022-11-01T21:30:56.955Z,2.05
2022-11-01T21:37:01.133Z,1.80
2022-11-01T21:43:05.882Z,1.25
2022-11-01T21:49:22.326Z,1.02
2022-11-01T21:55:26.180Z,0.93
2022-11-01T22:01:30.929Z,1.17
2022-11-01T22:07:35.788Z,1.40
2022-11-01T22:13:39.722Z,1.00
2022-11-01T22:19:43.256Z,0.95
2022-11-01T22:25:48.007Z,0.90
2022-11-01T22:31:51.461Z,1.00
2022-11-01T22:37:55.580Z,1.05
2022-11-01T22:44:02.043Z,1.00
2022-11-01T22:50:06.117Z,1.30
2022-11-01T22:56:12.389Z,1.15
2022-11-01T23:02:26.983Z,1.00
2022-11-01T23:08:31.791Z,1.00
2022-11-01T23:14:38.079Z,1.40
2022-11-01T23:20:43.110Z,1.20
2022-11-01T23:26:46.483Z,1.10
2022-11-01T23:32:49.875Z,1.40
2022-11-01T23:38:55.344Z,1.10
2022-11-01T23:44:58.865Z,1.30
2022-11-01T23:51:02.390Z,1.08
2022-11-01T23:57:07.498Z,1.00
